createdAt,value
2022-09-17T00:01:41.680Z,83.94
2022-09-17T00:04:11.037Z,82.39
2022-09-17T00:06:39.715Z,82.07
2022-09-17T00:09:09.390Z,82.52
2022-09-17T00:11:39.939Z,81.39
2022-09-17T00:14:14.262Z,81.42
2022-09-17T00:16:46.248Z,80.27
2022-09-17T00:19:16.633Z,80.87
2022-09-17T00:21:45.267Z,80.76
2022-09-17T00:24:14.769Z,82.14
2022-09-17T00:26:43.590Z,82.09
2022-09-17T00:29:13.589Z,81.21
2022-09-17T00:31:42.286Z,80.11
2022-09-17T00:34:11.824Z,80.63
2022-09-17T00:36:40.975Z,81.87
2022-09-17T00:39:11.133Z,80.92
2022-09-17T00:41:39.964Z,80.84
2022-09-17T00:44:42.893Z,80.79
2022-09-17T00:47:17.813Z,80.70
2022-09-17T00:49:46.647Z,80.50
2022-09-17T00:52:17.257Z,81.69
2022-09-17T00:54:51.132Z,80.60
2022-09-17T00:57:20.174Z,80.45
2022-09-17T00:59:50.307Z,80.81
2022-09-17T01:02:18.927Z,80.53
2022-09-17T01:04:47.535Z,79.64
2022-09-17T01:07:24.237Z,79.96
2022-09-17T01:09:56.828Z,79.84
2022-09-17T01:12:47.750Z,79.28
2022-09-17T01:15:24.044Z,80.16
2022-09-17T01:18:04.995Z,80.22
2022-09-17T01:20:52.834Z,79.50
2022-09-17T01:23:39.391Z,79.75
2022-09-17T01:26:24.325Z,80.50
2022-09-17T01:28:57.946Z,80.28
2022-09-17T01:31:37.253Z,79.69
2022-09-17T01:34:14.374Z,80.18
2022-09-17T01:36:48.213Z,80.51
2022-09-17T01:39:27.811Z,80.66
2022-09-17T01:42:00.588Z,80.46
2022-09-17T01:44:32.782Z,80.02
2022-09-17T01:47:07.067Z,79.69
2022-09-17T01:49:37.656Z,80.64
2022-09-17T01:52:06.932Z,80.72
2022-09-17T01:54:41.735Z,80.69
2022-09-17T01:57:14.991Z,80.87
2022-09-17T01:59:46.708Z,81.28
2022-09-17T02:02:19.584Z,80.91
2022-09-17T02:04:51.763Z,81.13
2022-09-17T02:07:21.562Z,80.56
2022-09-17T02:09:54.472Z,81.22
2022-09-17T02:12:28.528Z,80.76
2022-09-17T02:14:59.203Z,80.80
2022-09-17T02:17:33.662Z,80.98
2022-09-17T02:20:02.588Z,80.33
2022-09-17T02:22:34.969Z,79.89
2022-09-17T02:25:06.752Z,79.98
2022-09-17T02:27:42.882Z,80.07
2022-09-17T02:30:11.999Z,80.71
2022-09-17T02:32:42.961Z,80.98
2022-09-17T02:35:13.891Z,80.25
2022-09-17T02:37:42.484Z,79.92
2022-09-17T02:40:11.924Z,79.73
2022-09-17T02:42:53.098Z,79.42
2022-09-17T02:45:28.146Z,78.93
2022-09-17T02:48:18.866Z,80.17
2022-09-17T02:50:59.929Z,80.12
2022-09-17T02:53:36.275Z,80.81
2022-09-17T02:56:13.575Z,80.19
2022-09-17T02:58:48.036Z,80.22
2022-09-17T03:01:22.096Z,80.42
2022-09-17T03:03:52.367Z,80.30
2022-09-17T03:06:20.954Z,80.19
2022-09-17T03:08:50.277Z,79.77
2022-09-17T03:11:18.878Z,79.46
2022-09-17T03:13:47.684Z,79.06
2022-09-17T03:16:16.266Z,79.32
2022-09-17T03:18:44.877Z,79.36
2022-09-17T03:21:14.796Z,80.23
2022-09-17T03:23:43.481Z,79.98
2022-09-17T03:26:12.024Z,80.31
2022-09-17T03:28:40.616Z,81.03
2022-09-17T03:31:09.244Z,80.05
2022-09-17T03:33:37.822Z,79.81
2022-09-17T03:36:06.801Z,80.91
2022-09-17T03:38:38.525Z,81.37
2022-09-17T03:41:08.088Z,80.31
2022-09-17T03:43:36.636Z,81.07
2022-09-17T03:46:05.413Z,81.04
2022-09-17T03:48:36.958Z,80.52
2022-09-17T03:51:05.681Z,80.80
2022-09-17T03:53:35.834Z,81.02
2022-09-17T03:56:06.650Z,80.86
2022-09-17T03:58:35.972Z,81.30
2022-09-17T04:01:04.657Z,81.00
2022-09-17T04:03:33.886Z,80.52
2022-09-17T04:06:02.520Z,79.30
2022-09-17T04:08:31.101Z,79.57
2022-09-17T04:11:01.092Z,78.84
2022-09-17T04:13:29.659Z,79.05
2022-09-17T04:15:58.269Z,79.16
2022-09-17T04:18:26.898Z,79.13
2022-09-17T04:20:55.459Z,78.86
2022-09-17T04:23:24.376Z,78.90
2022-09-17T04:25:52.925Z,79.32
2022-09-17T04:28:22.892Z,79.08
2022-09-17T04:30:51.589Z,79.76
2022-09-17T04:33:20.162Z,79.50
2022-09-17T04:35:48.838Z,80.77
2022-09-17T04:38:20.431Z,79.53
2022-09-17T04:40:48.986Z,79.51
2022-09-17T04:43:17.524Z,79.49
2022-09-17T04:45:48.135Z,79.33
2022-09-17T04:48:16.704Z,79.01
2022-09-17T04:50:45.299Z,79.74
2022-09-17T04:53:13.890Z,79.81
2022-09-17T04:55:43.504Z,79.48
2022-09-17T04:58:12.431Z,79.49
2022-09-17T05:00:41.759Z,80.46
2022-09-17T05:03:11.725Z,80.11
2022-09-17T05:05:40.332Z,78.27
2022-09-17T05:08:09.310Z,78.06
2022-09-17T05:10:37.910Z,76.80
2022-09-17T05:13:06.640Z,77.14
2022-09-17T05:15:35.242Z,78.48
2022-09-17T05:18:03.821Z,77.56
2022-09-17T05:20:33.795Z,76.80
2022-09-17T05:23:02.404Z,76.88
2022-09-17T05:25:30.989Z,77.57
2022-09-17T05:28:01.178Z,76.44
2022-09-17T05:30:30.060Z,77.22
2022-09-17T05:33:01.012Z,77.58
2022-09-17T05:35:30.038Z,76.99
2022-09-17T05:38:01.028Z,77.17
2022-09-17T05:40:30.375Z,77.10
2022-09-17T05:42:59.635Z,78.90
2022-09-17T05:45:28.252Z,76.50
2022-09-17T05:47:57.472Z,75.75
2022-09-17T05:50:26.901Z,75.95
2022-09-17T05:52:55.664Z,77.22
2022-09-17T05:55:27.713Z,76.72
2022-09-17T05:57:56.270Z,76.32
2022-09-17T06:00:24.827Z,76.84
2022-09-17T06:02:55.928Z,75.90
2022-09-17T06:05:24.774Z,75.12
2022-09-17T06:07:53.353Z,74.71
2022-09-17T06:10:21.916Z,75.90
2022-09-17T06:12:56.821Z,75.58
2022-09-17T06:15:25.711Z,76.00
2022-09-17T06:17:54.648Z,74.54
2022-09-17T06:20:23.335Z,75.05
2022-09-17T06:22:57.131Z,75.26
2022-09-17T06:25:26.351Z,76.47
2022-09-17T06:27:56.256Z,75.98
2022-09-17T06:30:24.804Z,74.19
2022-09-17T06:32:53.369Z,74.95
2022-09-17T06:35:21.909Z,74.94
2022-09-17T06:37:50.448Z,73.63
2022-09-17T06:40:19.065Z,74.33
2022-09-17T06:42:47.678Z,73.23
2022-09-17T06:45:17.633Z,73.38
2022-09-17T06:47:46.175Z,73.82
2022-09-17T06:50:14.800Z,75.14
2022-09-17T06:52:49.299Z,74.61
2022-09-17T06:55:17.924Z,73.95
2022-09-17T06:57:46.485Z,74.86
2022-09-17T07:00:16.780Z,75.45
2022-09-17T07:02:45.348Z,75.59
2022-09-17T07:05:13.932Z,74.18
2022-09-17T07:07:42.485Z,73.93
2022-09-17T07:10:11.052Z,74.17
2022-09-17T07:12:44.485Z,74.37
2022-09-17T07:15:17.067Z,73.53
2022-09-17T07:17:46.747Z,73.40
2022-09-17T07:20:15.593Z,73.81
2022-09-17T07:22:44.143Z,73.44
2022-09-17T07:25:12.749Z,74.92
2022-09-17T07:27:41.299Z,74.94
2022-09-17T07:30:12.824Z,74.93
2022-09-17T07:32:42.919Z,74.75
2022-09-17T07:35:12.000Z,76.78
2022-09-17T07:37:40.856Z,78.60
2022-09-17T07:40:10.250Z,79.77
2022-09-17T07:42:38.875Z,80.13
2022-09-17T07:45:09.792Z,80.79
2022-09-17T07:47:42.670Z,82.32
2022-09-17T07:50:11.424Z,85.15
2022-09-17T07:52:39.967Z,84.03
2022-09-17T07:55:09.298Z,83.96
2022-09-17T07:57:38.201Z,84.31
2022-09-17T08:00:08.358Z,85.49
2022-09-17T08:02:37.026Z,84.67
2022-09-17T08:05:07.753Z,86.26
2022-09-17T08:07:36.337Z,85.40
2022-09-17T08:10:06.039Z,85.93
2022-09-17T08:12:34.571Z,87.66
2022-09-17T08:15:03.194Z,86.11
2022-09-17T08:17:32.043Z,85.74
2022-09-17T08:20:00.618Z,87.37
2022-09-17T08:22:31.593Z,86.47
2022-09-17T08:25:00.360Z,86.10
2022-09-17T08:27:30.919Z,86.83
2022-09-17T08:29:59.569Z,86.49
2022-09-17T08:32:30.596Z,85.41
2022-09-17T08:34:59.626Z,84.91
2022-09-17T08:37:30.729Z,84.69
2022-09-17T08:39:59.419Z,85.17
2022-09-17T08:42:33.401Z,83.39
2022-09-17T08:45:04.604Z,84.09
2022-09-17T08:47:37.673Z,82.23
2022-09-17T08:50:08.589Z,84.05
2022-09-17T08:52:54.085Z,83.63
2022-09-17T08:55:33.942Z,81.76
2022-09-17T08:58:21.181Z,83.16
2022-09-17T09:00:55.820Z,81.89
2022-09-17T09:03:31.174Z,80.59
2022-09-17T09:06:01.689Z,81.05
2022-09-17T09:08:35.323Z,79.12
2022-09-17T09:11:05.791Z,78.77
2022-09-17T09:13:37.027Z,77.23
2022-09-17T09:16:08.342Z,76.79
2022-09-17T09:18:38.744Z,77.51
2022-09-17T09:21:19.469Z,75.43
2022-09-17T09:23:54.224Z,75.25
2022-09-17T09:26:24.895Z,73.08
2022-09-17T09:29:05.844Z,72.02
2022-09-17T09:31:42.925Z,73.11
2022-09-17T09:34:13.309Z,73.22
2022-09-17T09:36:42.027Z,71.72
2022-09-17T09:39:17.752Z,73.28
2022-09-17T09:41:48.760Z,73.18
2022-09-17T09:44:17.863Z,72.59
2022-09-17T09:46:55.004Z,71.10
2022-09-17T09:49:31.184Z,70.34
2022-09-17T09:52:09.972Z,72.24
2022-09-17T09:54:49.311Z,71.64
2022-09-17T09:57:20.191Z,71.08
2022-09-17T09:59:48.738Z,72.12
2022-09-17T10:02:17.453Z,70.35
2022-09-17T10:04:48.311Z,70.22
2022-09-17T10:07:20.074Z,69.34
2022-09-17T10:09:50.021Z,68.86
2022-09-17T10:12:19.034Z,69.77
2022-09-17T10:14:47.921Z,70.97
2022-09-17T10:17:21.980Z,69.85
2022-09-17T10:20:23.585Z,70.68
2022-09-17T10:22:52.186Z,69.08
2022-09-17T10:25:31.489Z,71.07
2022-09-17T10:28:01.363Z,69.21
2022-09-17T10:30:30.157Z,70.40
2022-09-17T10:33:23.016Z,69.28
2022-09-17T10:36:02.554Z,69.94
2022-09-17T10:38:36.575Z,69.46
2022-09-17T10:41:15.933Z,66.69
2022-09-17T10:43:44.740Z,66.12
2022-09-17T10:46:21.907Z,65.74
2022-09-17T10:48:59.345Z,65.14
2022-09-17T10:51:28.788Z,65.31
2022-09-17T10:54:07.213Z,63.37
2022-09-17T10:56:38.795Z,62.89
2022-09-17T10:59:29.433Z,62.02
2022-09-17T11:02:03.493Z,62.18
2022-09-17T11:04:41.538Z,60.90
2022-09-17T11:07:35.948Z,57.94
2022-09-17T11:10:13.201Z,60.61
2022-09-17T11:12:53.511Z,56.97
2022-09-17T11:15:32.799Z,57.23
2022-09-17T11:18:35.202Z,55.82
2022-09-17T11:21:27.721Z,53.48
2022-09-17T11:24:12.610Z,52.04
2022-09-17T11:26:44.826Z,52.84
2022-09-17T11:29:30.303Z,55.04
2022-09-17T11:32:06.154Z,53.31
2022-09-17T11:34:37.730Z,50.94
2022-09-17T11:37:11.432Z,52.72
2022-09-17T11:39:44.058Z,53.31
2022-09-17T11:42:17.749Z,53.03
2022-09-17T11:44:51.109Z,54.64
2022-09-17T11:47:22.701Z,51.82
2022-09-17T11:49:55.105Z,52.63
2022-09-17T11:52:25.644Z,54.09
2022-09-17T11:54:57.196Z,53.80
2022-09-17T11:57:28.229Z,52.59
2022-09-17T12:00:03.944Z,51.30
2022-09-17T12:02:44.742Z,53.69
2022-09-17T12:05:18.465Z,52.47
2022-09-17T12:07:51.180Z,49.84
2022-09-17T12:10:41.677Z,51.08
2022-09-17T12:13:21.447Z,52.05
2022-09-17T12:15:53.973Z,51.67
2022-09-17T12:18:33.063Z,52.98
2022-09-17T12:21:04.469Z,52.81
2022-09-17T12:23:38.591Z,53.20
2022-09-17T12:26:16.741Z,52.42
2022-09-17T12:28:53.388Z,53.49
2022-09-17T12:31:33.736Z,55.30
2022-09-17T12:34:08.443Z,60.14
2022-09-17T12:36:48.527Z,60.30
2022-09-17T12:39:39.718Z,61.84
2022-09-17T12:42:19.574Z,65.18
2022-09-17T12:45:01.703Z,68.26
2022-09-17T12:48:05.842Z,70.60
2022-09-17T12:50:42.635Z,71.53
2022-09-17T12:53:16.826Z,72.11
2022-09-17T12:56:17.509Z,69.92
2022-09-17T12:59:02.123Z,71.30
2022-09-17T13:01:34.857Z,70.66
2022-09-17T13:04:12.928Z,69.56
2022-09-17T13:07:20.856Z,67.58
2022-09-17T13:10:01.210Z,68.98
2022-09-17T13:12:33.769Z,63.86
2022-09-17T13:15:22.645Z,65.61
2022-09-17T13:18:12.893Z,66.52
2022-09-17T13:20:56.425Z,65.93
2022-09-17T13:23:35.692Z,67.35
2022-09-17T13:26:06.755Z,67.63
2022-09-17T13:28:47.182Z,68.94
2022-09-17T13:31:21.381Z,68.39
2022-09-17T13:33:55.166Z,68.47
2022-09-17T13:36:45.813Z,70.21
2022-09-17T13:39:36.561Z,71.70
2022-09-17T13:42:09.551Z,71.28
2022-09-17T13:44:41.134Z,70.85
2022-09-17T13:47:13.076Z,71.96
2022-09-17T13:49:46.795Z,71.96
2022-09-17T13:52:30.612Z,70.91
2022-09-17T13:54:59.717Z,70.37
2022-09-17T13:57:28.581Z,69.99
2022-09-17T13:59:59.460Z,69.54
2022-09-17T14:02:35.011Z,70.35
2022-09-17T14:05:24.355Z,69.63
2022-09-17T14:08:11.867Z,70.38
2022-09-17T14:10:44.987Z,70.04
2022-09-17T14:13:30.192Z,67.87
2022-09-17T14:16:02.899Z,67.49
2022-09-17T14:18:59.954Z,66.90
2022-09-17T14:21:31.211Z,67.55
2022-09-17T14:24:02.881Z,66.36
2022-09-17T14:26:57.607Z,65.04
2022-09-17T14:29:41.036Z,65.56
2022-09-17T14:32:15.336Z,65.85
2022-09-17T14:34:44.025Z,65.88
2022-09-17T14:37:14.700Z,64.36
2022-09-17T14:39:45.312Z,63.87
2022-09-17T14:42:17.204Z,63.24
2022-09-17T14:44:49.993Z,63.71
2022-09-17T14:47:19.817Z,63.94
2022-09-17T14:49:48.882Z,64.32
2022-09-17T14:52:28.812Z,63.45
2022-09-17T14:55:18.913Z,64.45
2022-09-17T14:57:50.641Z,64.67
2022-09-17T15:00:22.939Z,65.53
2022-09-17T15:02:54.295Z,64.47
2022-09-17T15:05:26.617Z,64.61
2022-09-17T15:08:14.005Z,66.05
2022-09-17T15:10:53.631Z,66.29
2022-09-17T15:13:26.528Z,65.87
2022-09-17T15:16:01.700Z,66.32
2022-09-17T15:18:41.558Z,65.37
2022-09-17T15:21:29.165Z,66.13
2022-09-17T15:24:00.798Z,65.88
2022-09-17T15:26:34.295Z,65.41
2022-09-17T15:29:04.092Z,64.50
2022-09-17T15:31:32.793Z,65.53
2022-09-17T15:34:01.700Z,65.25
2022-09-17T15:36:31.644Z,65.66
2022-09-17T15:39:00.275Z,66.69
2022-09-17T15:41:32.723Z,65.58
2022-09-17T15:44:29.217Z,66.81
2022-09-17T15:47:32.642Z,66.95
2022-09-17T15:50:16.785Z,64.70
2022-09-17T15:52:45.475Z,65.30
2022-09-17T15:55:34.860Z,64.79
2022-09-17T15:58:06.540Z,63.97
2022-09-17T16:00:35.140Z,64.13
2022-09-17T16:04:02.891Z,63.90
2022-09-17T16:06:38.789Z,63.63
2022-09-17T16:09:39.248Z,64.09
2022-09-17T16:12:08.114Z,63.70
2022-09-17T16:14:38.064Z,64.04
2022-09-17T16:17:11.064Z,63.27
2022-09-17T16:19:39.669Z,63.50
2022-09-17T16:22:08.262Z,63.96
2022-09-17T16:24:36.833Z,64.30
2022-09-17T16:27:06.551Z,62.76
2022-09-17T16:29:35.452Z,64.18
2022-09-17T16:32:05.548Z,63.61
2022-09-17T16:34:34.189Z,65.06
2022-09-17T16:37:02.794Z,63.20
2022-09-17T16:39:31.374Z,63.33
2022-09-17T16:42:00.030Z,63.09
2022-09-17T16:44:28.605Z,64.72
2022-09-17T16:46:57.219Z,64.10
2022-09-17T16:49:27.215Z,62.66
2022-09-17T16:51:55.773Z,64.36
2022-09-17T16:54:24.453Z,63.71
2022-09-17T16:56:53.713Z,64.08
2022-09-17T16:59:22.642Z,62.97
2022-09-17T17:01:51.207Z,64.34
2022-09-17T17:04:21.204Z,64.83
2022-09-17T17:06:51.597Z,63.59
2022-09-17T17:09:20.205Z,63.48
2022-09-17T17:11:48.759Z,63.83
2022-09-17T17:14:17.413Z,64.24
2022-09-17T17:16:46.490Z,64.01
2022-09-17T17:19:15.070Z,64.19
2022-09-17T17:21:47.001Z,62.98
2022-09-17T17:24:17.344Z,64.51
2022-09-17T17:26:46.015Z,65.45
2022-09-17T17:29:14.591Z,68.13
2022-09-17T17:31:43.299Z,69.41
2022-09-17T17:34:12.417Z,71.03
2022-09-17T17:36:41.004Z,70.05
2022-09-17T17:39:10.380Z,72.73
2022-09-17T17:41:40.317Z,72.09
2022-09-17T17:44:12.468Z,74.26
2022-09-17T17:46:41.619Z,77.85
2022-09-17T17:49:10.274Z,82.76
2022-09-17T17:51:39.002Z,81.19
2022-09-17T17:54:07.953Z,80.19
2022-09-17T17:56:36.527Z,79.25
2022-09-17T17:59:06.748Z,79.41
2022-09-17T18:01:35.626Z,79.36
2022-09-17T18:04:07.677Z,81.62
2022-09-17T18:06:36.639Z,84.06
2022-09-17T18:09:05.964Z,85.67
2022-09-17T18:11:35.273Z,86.17
2022-09-17T18:14:06.069Z,86.30
2022-09-17T18:16:35.053Z,88.88
2022-09-17T18:19:03.672Z,86.98
2022-09-17T18:21:32.272Z,89.95
2022-09-17T18:24:00.847Z,88.89
2022-09-17T18:26:30.042Z,88.98
2022-09-17T18:28:58.617Z,88.41
2022-09-17T18:31:29.804Z,88.66
2022-09-17T18:33:59.876Z,87.38
2022-09-17T18:36:29.892Z,89.73
2022-09-17T18:39:11.033Z,88.11
2022-09-17T18:41:50.128Z,87.14
2022-09-17T18:44:21.578Z,90.46
2022-09-17T18:46:51.836Z,91.12
2022-09-17T18:49:20.453Z,87.17
2022-09-17T18:51:48.999Z,88.49
2022-09-17T18:54:17.629Z,89.45
2022-09-17T18:56:46.177Z,90.30
2022-09-17T18:59:14.738Z,90.11
2022-09-17T19:01:43.376Z,90.32
2022-09-17T19:04:13.538Z,91.95
2022-09-17T19:06:42.362Z,90.62
2022-09-17T19:09:11.542Z,89.70
2022-09-17T19:11:40.201Z,89.43
2022-09-17T19:14:10.179Z,91.93
2022-09-17T19:16:38.774Z,91.35
2022-09-17T19:19:07.349Z,90.05
2022-09-17T19:21:37.278Z,89.94
2022-09-17T19:24:06.258Z,90.74
2022-09-17T19:26:34.839Z,85.17
2022-09-17T19:29:03.417Z,83.75
2022-09-17T19:31:32.022Z,83.39
2022-09-17T19:34:00.870Z,81.18
2022-09-17T19:36:29.537Z,78.53
2022-09-17T19:38:59.486Z,76.89
2022-09-17T19:41:28.160Z,79.56
2022-09-17T19:43:57.164Z,82.58
2022-09-17T19:46:27.107Z,82.45
2022-09-17T19:48:57.300Z,82.33
2022-09-17T19:51:28.325Z,83.39
2022-09-17T19:53:57.173Z,81.75
2022-09-17T19:56:28.205Z,82.00
2022-09-17T19:58:59.732Z,88.40
2022-09-17T20:01:28.485Z,87.16
2022-09-17T20:03:57.080Z,88.77
2022-09-17T20:06:25.696Z,85.06
2022-09-17T20:08:55.176Z,87.54
2022-09-17T20:11:24.808Z,84.19
2022-09-17T20:13:59.436Z,85.08
2022-09-17T20:16:29.367Z,81.02
2022-09-17T20:18:57.951Z,80.86
2022-09-17T20:21:28.707Z,81.15
2022-09-17T20:23:57.910Z,82.70
2022-09-17T20:26:27.189Z,87.70
2022-09-17T20:28:55.905Z,84.95
2022-09-17T20:31:27.387Z,80.97
2022-09-17T20:33:57.136Z,80.50
2022-09-17T20:36:27.400Z,83.89
2022-09-17T20:39:16.538Z,86.73
2022-09-17T20:41:44.649Z,88.20
2022-09-17T20:44:13.306Z,86.59
2022-09-17T20:46:43.355Z,85.19
2022-09-17T20:49:12.021Z,83.11
2022-09-17T20:51:40.624Z,84.57
2022-09-17T20:54:09.450Z,85.33
2022-09-17T20:56:38.059Z,85.82
2022-09-17T20:59:14.328Z,85.06
2022-09-17T21:01:45.724Z,81.76
2022-09-17T21:04:15.677Z,81.06
2022-09-17T21:06:44.867Z,80.26
2022-09-17T21:09:16.481Z,80.40
2022-09-17T21:11:46.033Z,81.17
2022-09-17T21:14:15.723Z,81.37
2022-09-17T21:16:46.415Z,81.78
2022-09-17T21:19:15.991Z,82.58
2022-09-17T21:21:44.823Z,82.32
2022-09-17T21:24:13.459Z,84.00
2022-09-17T21:26:42.041Z,85.39
2022-09-17T21:29:10.661Z,86.75
2022-09-17T21:31:39.824Z,85.54
2022-09-17T21:34:12.930Z,84.09
2022-09-17T21:36:44.198Z,85.08
2022-09-17T21:39:14.696Z,84.17
2022-09-17T21:41:43.444Z,82.97
2022-09-17T21:44:12.906Z,83.63
2022-09-17T21:46:42.543Z,86.20
2022-09-17T21:49:13.791Z,86.62
2022-09-17T21:51:43.712Z,85.31
2022-09-17T21:54:15.228Z,87.45
2022-09-17T21:56:43.999Z,86.41
2022-09-17T21:59:14.088Z,86.12
2022-09-17T22:01:46.193Z,87.00
2022-09-17T22:04:17.783Z,87.33
2022-09-17T22:06:47.388Z,86.42
2022-09-17T22:09:17.494Z,86.75
2022-09-17T22:11:46.553Z,84.45
2022-09-17T22:14:19.124Z,83.61
2022-09-17T22:16:50.437Z,86.26
2022-09-17T22:19:21.156Z,87.14
2022-09-17T22:21:51.242Z,83.26
2022-09-17T22:24:20.982Z,84.20
2022-09-17T22:26:56.468Z,84.70
2022-09-17T22:29:26.364Z,82.92
2022-09-17T22:31:55.203Z,84.65
2022-09-17T22:34:25.796Z,83.47
2022-09-17T22:36:54.392Z,83.20
2022-09-17T22:39:23.053Z,81.24
2022-09-17T22:41:51.802Z,82.20
2022-09-17T22:44:21.554Z,81.81
2022-09-17T22:46:51.247Z,82.78
2022-09-17T22:49:20.641Z,86.46
2022-09-17T22:51:50.767Z,86.48
2022-09-17T22:54:19.644Z,84.47
2022-09-17T22:56:49.310Z,86.65
2022-09-17T22:59:19.011Z,83.04
2022-09-17T23:01:47.882Z,82.03
2022-09-17T23:04:16.558Z,82.28
2022-09-17T23:06:45.142Z,82.02
2022-09-17T23:09:15.388Z,81.99
2022-09-17T23:11:46.422Z,83.07
2022-09-17T23:14:17.542Z,80.68
2022-09-17T23:16:47.768Z,81.38
2022-09-17T23:19:17.915Z,80.29
2022-09-17T23:21:46.975Z,80.54
2022-09-17T23:24:19.127Z,81.21
2022-09-17T23:26:47.841Z,80.12
2022-09-17T23:29:16.487Z,79.62
2022-09-17T23:31:45.181Z,79.99
2022-09-17T23:34:13.719Z,80.98
2022-09-17T23:36:42.272Z,82.60
2022-09-17T23:39:12.529Z,81.02
2022-09-17T23:41:45.328Z,80.10
2022-09-17T23:44:16.079Z,79.73
2022-09-17T23:46:46.422Z,79.54
2022-09-17T23:49:15.438Z,79.07
2022-09-17T23:51:44.355Z,78.72
2022-09-17T23:54:12.955Z,79.41
2022-09-17T23:56:42.890Z,79.79
2022-09-17T23:59:12.219Z,81.62
